Time;durP1;ratioP1;P1;durP2;ratioP2;P2;SDS_P1;SDS_P2;PMS_P1;PMS_P2;Temp;Humidity;BMP_temperature;BMP_pressure;BME280_temperature;BME280_humidity;BME280_pressure;Samples;Min_cycle;Max_cycle;Signal;HPM_P1;HPM_P2
2023/09/29 00:02:01;;;;;;;27.50;9.55;;;15.30;99.90;;;;;;7380183;19;20409;-61
2023/09/29 00:04:30;;;;;;;24.15;9.73;;;15.20;99.90;;;;;;7380611;19;20014;-62
2023/09/29 00:06:56;;;;;;;22.65;9.40;;;15.20;99.90;;;;;;7380497;19;20019;-62
2023/09/29 00:09:22;;;;;;;26.85;9.35;;;15.20;99.90;;;;;;7383103;19;20014;-62
2023/09/29 00:11:49;;;;;;;23.50;10.13;;;15.20;99.90;;;;;;7382963;19;20023;-62
2023/09/29 00:14:15;;;;;;;20.25;9.65;;;15.20;99.90;;;;;;7381206;19;20434;-61
2023/09/29 00:16:41;;;;;;;24.58;9.27;;;15.20;99.90;;;;;;7380024;19;20658;-65
2023/09/29 00:19:08;;;;;;;22.38;9.40;;;15.20;99.90;;;;;;7379592;19;20073;-66
2023/09/29 00:21:34;;;;;;;22.63;10.52;;;15.20;99.90;;;;;;7380117;19;20053;-64
2023/09/29 00:24:01;;;;;;;19.88;10.52;;;15.20;99.90;;;;;;7379021;19;20026;-65
2023/09/29 00:26:27;;;;;;;23.40;10.55;;;15.20;99.90;;;;;;7373885;19;21341;-63
2023/09/29 00:28:54;;;;;;;22.80;9.98;;;15.30;99.90;;;;;;7382463;19;20489;-60
2023/09/29 00:31:20;;;;;;;19.90;9.50;;;15.30;99.90;;;;;;7380765;19;20112;-61
2023/09/29 00:33:46;;;;;;;26.00;10.50;;;15.30;99.90;;;;;;7380403;19;20114;-62
2023/09/29 00:36:12;;;;;;;24.58;9.63;;;15.30;99.90;;;;;;7383207;19;20015;-66
2023/09/29 00:38:39;;;;;;;20.60;10.00;;;15.30;99.90;;;;;;7376661;19;20358;-66
2023/09/29 00:41:25;;;;;;;20.63;10.43;;;15.40;99.90;;;;;;7378325;19;20501;-60
2023/09/29 00:43:51;;;;;;;29.27;10.40;;;15.40;99.90;;;;;;7378569;19;20024;-60
2023/09/29 00:46:19;;;;;;;22.77;10.27;;;15.40;99.90;;;;;;7379279;19;20823;-67
2023/09/29 00:48:45;;;;;;;21.92;9.90;;;15.40;99.90;;;;;;7378185;19;20022;-66
2023/09/29 00:51:11;;;;;;;20.77;9.68;;;15.40;99.90;;;;;;7379154;19;20090;-66
2023/09/29 00:53:38;;;;;;;20.60;10.40;;;15.50;99.90;;;;;;7379916;19;20453;-65
2023/09/29 00:56:06;;;;;;;22.95;10.05;;;15.50;99.90;;;;;;7380081;19;20022;-66
2023/09/29 00:58:33;;;;;;;20.65;9.55;;;15.40;99.90;;;;;;7374789;19;20018;-61
2023/09/29 01:01:23;;;;;;;18.00;10.30;;;15.40;99.90;;;;;;7372965;19;20382;-62
2023/09/29 01:03:50;;;;;;;19.75;10.00;;;15.40;99.90;;;;;;7378301;19;20402;-67
2023/09/29 01:06:17;;;;;;;21.65;9.68;;;15.30;99.90;;;;;;7376703;19;20485;-66
2023/09/29 01:08:44;;;;;;;23.92;10.75;;;15.30;99.90;;;;;;7376586;19;20022;-66
2023/09/29 01:11:13;;;;;;;26.23;10.63;;;15.20;99.90;;;;;;7374326;19;20078;-67
2023/09/29 01:14:02;;;;;;;19.90;10.93;;;15.20;99.90;;;;;;7375888;19;20022;-67
2023/09/29 01:16:29;;;;;;;22.35;9.70;;;15.20;99.90;;;;;;7379028;19;20048;-64
2023/09/29 01:18:56;;;;;;;19.60;9.38;;;15.30;99.90;;;;;;7376786;19;20699;-65
2023/09/29 01:21:23;;;;;;;21.88;10.05;;;15.20;99.90;;;;;;7377554;19;20455;-65
2023/09/29 01:23:50;;;;;;;19.55;9.77;;;15.30;99.90;;;;;;7369724;19;20018;-66
2023/09/29 01:26:18;;;;;;;20.77;9.88;;;15.30;99.90;;;;;;7374300;19;20796;-66
2023/09/29 01:28:47;;;;;;;21.10;10.57;;;15.30;99.90;;;;;;7376048;19;20023;-65
2023/09/29 01:31:13;;;;;;;21.42;10.27;;;15.30;99.90;;;;;;7379559;19;20021;-66
2023/09/29 01:33:39;;;;;;;23.98;10.98;;;15.30;99.90;;;;;;7377391;19;20485;-66
2023/09/29 01:36:06;;;;;;;23.40;10.30;;;15.40;99.90;;;;;;7375893;19;20478;-67
2023/09/29 01:38:32;;;;;;;21.88;9.77;;;15.40;99.90;;;;;;7375330;19;20040;-66
2023/09/29 01:40:58;;;;;;;22.23;9.82;;;15.40;99.90;;;;;;7375759;19;20016;-67
2023/09/29 01:43:26;;;;;;;20.50;9.85;;;15.40;99.90;;;;;;7377207;19;20418;-65
2023/09/29 01:45:52;;;;;;;19.83;9.40;;;15.50;99.90;;;;;;7377694;19;20494;-67
2023/09/29 01:48:18;;;;;;;16.42;9.20;;;15.40;99.90;;;;;;7375273;19;20503;-66
2023/09/29 01:50:45;;;;;;;22.13;10.27;;;15.50;99.90;;;;;;7379611;19;20014;-62
2023/09/29 01:53:12;;;;;;;21.55;9.60;;;15.50;99.90;;;;;;7375747;19;20026;-61
2023/09/29 01:55:39;;;;;;;23.17;10.02;;;15.50;99.90;;;;;;7380768;19;20011;-62
2023/09/29 01:58:05;;;;;;;20.58;10.30;;;15.50;99.90;;;;;;7374877;19;20595;-62
2023/09/29 02:00:32;;;;;;;22.58;9.40;;;15.50;99.90;;;;;;7379761;19;20481;-59
2023/09/29 02:03:00;;;;;;;26.23;10.32;;;15.50;99.90;;;;;;7375545;19;20023;-61
2023/09/29 02:05:26;;;;;;;23.98;10.88;;;15.50;99.90;;;;;;7376986;19;20545;-62
2023/09/29 02:07:53;;;;;;;22.48;10.25;;;15.60;99.90;;;;;;7378370;19;20015;-62
2023/09/29 02:10:21;;;;;;;20.63;9.50;;;15.60;99.90;;;;;;7375058;19;20019;-63
2023/09/29 02:12:56;;;;;;;24.75;10.55;;;15.60;99.90;;;;;;7379915;19;20070;-61
2023/09/29 02:15:22;;;;;;;;;;;15.60;99.90;;;;;;7378709;19;20360;-61
2023/09/29 02:17:49;;;;;;;18.95;9.15;;;15.60;99.90;;;;;;7377939;19;19926;-62
2023/09/29 02:20:17;;;;;;;17.67;9.88;;;15.60;99.90;;;;;;7375441;19;20038;-62
2023/09/29 02:22:43;;;;;;;16.23;9.07;;;15.70;99.90;;;;;;7376997;19;20011;-67
2023/09/29 02:25:10;;;;;;;17.60;9.40;;;15.70;99.90;;;;;;7375539;19;20353;-62
2023/09/29 02:27:37;;;;;;;20.55;9.52;;;15.70;99.90;;;;;;7378273;19;20018;-63
2023/09/29 02:30:04;;;;;;;19.35;8.70;;;15.70;99.90;;;;;;7375378;19;20033;-62
2023/09/29 02:32:30;;;;;;;18.73;9.88;;;15.70;99.90;;;;;;7379254;19;20024;-60
2023/09/29 02:34:57;;;;;;;19.75;9.40;;;15.70;99.90;;;;;;7377330;19;20431;-61
2023/09/29 02:37:23;;;;;;;17.08;8.88;;;15.70;99.90;;;;;;7373816;19;20033;-65
2023/09/29 02:39:50;;;;;;;17.73;9.18;;;15.70;99.90;;;;;;7376726;19;20548;-66
2023/09/29 02:42:17;;;;;;;19.50;9.57;;;15.80;99.90;;;;;;7373432;19;20022;-65
2023/09/29 02:44:43;;;;;;;22.60;9.02;;;15.80;99.90;;;;;;7372455;19;20504;-65
2023/09/29 02:47:09;;;;;;;18.90;8.23;;;15.80;99.90;;;;;;7371065;19;20384;-65
2023/09/29 02:49:35;;;;;;;17.73;8.25;;;15.80;99.90;;;;;;7369528;19;20023;-66
2023/09/29 02:52:04;;;;;;;15.52;8.35;;;15.80;99.90;;;;;;7377115;19;20015;-65
2023/09/29 02:54:30;;;;;;;17.00;8.52;;;15.80;99.90;;;;;;7374930;19;20378;-66
2023/09/29 02:56:58;;;;;;;21.15;9.00;;;15.80;99.90;;;;;;7384824;19;20352;-61
2023/09/29 02:59:24;;;;;;;19.63;9.68;;;15.80;99.90;;;;;;7375886;19;20109;-66
2023/09/29 03:01:52;;;;;;;20.00;10.10;;;15.90;99.90;;;;;;7373935;19;20026;-62
2023/09/29 03:04:19;;;;;;;18.70;9.02;;;15.80;99.90;;;;;;7378485;19;20036;-61
2023/09/29 03:06:46;;;;;;;23.52;9.65;;;15.80;99.90;;;;;;7378545;19;20015;-67
2023/09/29 03:09:13;;;;;;;13.70;8.20;;;15.80;99.90;;;;;;7378296;19;20031;-67
2023/09/29 03:11:40;;;;;;;21.55;9.02;;;15.90;99.90;;;;;;7377869;19;20035;-65
2023/09/29 03:14:08;;;;;;;19.60;9.85;;;15.80;99.90;;;;;;7375040;19;20106;-66
2023/09/29 03:16:35;;;;;;;21.42;9.75;;;15.90;99.90;;;;;;7375411;19;20040;-66
2023/09/29 03:19:03;;;;;;;18.85;10.05;;;15.90;99.90;;;;;;7376003;19;20022;-66
2023/09/29 03:21:32;;;;;;;20.50;9.23;;;15.80;99.90;;;;;;7381504;19;20026;-66
2023/09/29 03:24:01;;;;;;;15.93;9.60;;;15.80;99.90;;;;;;7379200;19;20021;-61
2023/09/29 03:26:31;;;;;;;21.35;10.40;;;15.80;99.90;;;;;;7379296;19;20443;-61
2023/09/29 03:29:00;;;;;;;23.23;10.73;;;15.90;99.90;;;;;;7377091;19;20027;-66
2023/09/29 03:31:26;;;;;;;17.20;10.70;;;15.90;99.90;;;;;;7378927;19;20655;-66
2023/09/29 03:33:52;;;;;;;19.77;10.27;;;15.90;99.90;;;;;;7375943;19;20615;-66
2023/09/29 03:36:22;;;;;;;18.48;10.68;;;15.90;99.90;;;;;;7377545;19;20805;-66
2023/09/29 03:38:48;;;;;;;20.58;10.98;;;15.90;99.90;;;;;;7378999;19;20014;-66
2023/09/29 03:41:15;;;;;;;21.17;11.13;;;15.90;99.90;;;;;;7379077;19;20042;-67
2023/09/29 03:43:41;;;;;;;25.13;11.32;;;15.90;99.90;;;;;;7376196;19;20006;-66
2023/09/29 03:46:20;;;;;;;21.48;11.55;;;15.90;99.90;;;;;;7377691;19;20908;-66
2023/09/29 03:48:47;;;;;;;21.67;12.57;;;15.90;99.90;;;;;;7378123;19;20526;-61
2023/09/29 03:51:22;;;;;;;22.10;11.30;;;15.90;99.90;;;;;;7378102;19;20027;-61
2023/09/29 03:53:49;;;;;;;19.50;11.27;;;15.80;99.90;;;;;;7381549;19;20014;-61
2023/09/29 03:56:16;;;;;;;22.23;11.48;;;15.80;99.90;;;;;;7381497;19;20023;-61
2023/09/29 03:58:44;;;;;;;19.98;12.07;;;15.90;99.90;;;;;;7381272;19;20018;-61
2023/09/29 04:01:10;;;;;;;22.33;12.18;;;15.80;99.90;;;;;;7378624;19;20007;-61
2023/09/29 04:03:38;;;;;;;21.60;12.07;;;15.80;99.90;;;;;;7381330;19;20078;-62
2023/09/29 04:06:04;;;;;;;19.23;11.25;;;15.90;99.90;;;;;;7375024;19;20082;-62
2023/09/29 04:08:30;;;;;;;21.38;11.90;;;15.90;99.90;;;;;;7378918;19;20018;-62
2023/09/29 04:10:57;;;;;;;19.63;11.90;;;15.90;99.90;;;;;;7380431;19;20025;-61
2023/09/29 04:13:23;;;;;;;24.20;13.02;;;15.90;99.90;;;;;;7379401;19;20014;-62
2023/09/29 04:15:49;;;;;;;19.27;12.00;;;16.00;99.90;;;;;;7382862;19;20015;-62
2023/09/29 04:18:15;;;;;;;19.20;13.48;;;16.00;99.90;;;;;;7378778;19;20023;-62
2023/09/29 04:20:41;;;;;;;19.48;13.50;;;16.00;99.90;;;;;;7380836;19;20018;-62
2023/09/29 04:23:08;;;;;;;23.13;13.65;;;16.00;99.90;;;;;;7373940;19;20028;-67
2023/09/29 04:25:34;;;;;;;21.45;14.75;;;16.10;99.90;;;;;;7375405;19;20026;-66
2023/09/29 04:28:00;;;;;;;24.35;13.60;;;16.10;99.90;;;;;;7372465;19;20867;-66
2023/09/29 04:30:27;;;;;;;27.80;14.98;;;16.10;99.90;;;;;;7378387;19;20023;-66
2023/09/29 04:32:53;;;;;;;24.20;15.10;;;16.20;99.90;;;;;;7377066;19;20594;-66
2023/09/29 04:35:20;;;;;;;21.88;15.05;;;16.20;99.90;;;;;;7373231;19;20018;-67
2023/09/29 04:37:47;;;;;;;20.80;14.20;;;16.20;99.90;;;;;;7376860;19;20023;-61
2023/09/29 04:40:13;;;;;;;22.27;14.98;;;16.20;99.90;;;;;;7375108;19;20015;-66
2023/09/29 04:42:39;;;;;;;22.85;14.60;;;16.30;99.90;;;;;;7380102;19;20022;-61
2023/09/29 04:45:06;;;;;;;24.77;14.57;;;16.30;99.90;;;;;;7377668;19;20022;-61
2023/09/29 04:47:33;;;;;;;20.05;14.68;;;16.30;99.90;;;;;;7376860;19;20015;-62
2023/09/29 04:50:00;;;;;;;21.05;14.70;;;16.30;99.90;;;;;;7377333;19;20018;-61
2023/09/29 04:52:26;;;;;;;23.27;14.80;;;16.30;99.90;;;;;;7376846;19;20018;-61
2023/09/29 04:54:53;;;;;;;22.33;15.73;;;16.40;99.90;;;;;;7376820;19;20025;-65
2023/09/29 04:57:19;;;;;;;22.75;15.05;;;16.40;99.90;;;;;;7380245;19;20411;-61
2023/09/29 04:59:45;;;;;;;22.48;14.65;;;16.40;99.90;;;;;;7380104;19;20018;-61
2023/09/29 05:02:12;;;;;;;21.40;13.88;;;16.40;99.90;;;;;;7375199;19;20071;-61
2023/09/29 05:04:39;;;;;;;20.85;13.50;;;16.50;99.90;;;;;;7376525;19;20031;-63
2023/09/29 05:07:06;;;;;;;20.13;14.20;;;16.50;99.90;;;;;;7376003;19;20446;-63
2023/09/29 05:09:32;;;;;;;19.00;13.48;;;16.50;99.90;;;;;;7378808;19;20869;-66
2023/09/29 05:11:58;;;;;;;22.67;13.38;;;16.50;99.90;;;;;;7376605;19;20444;-66
2023/09/29 05:14:25;;;;;;;23.48;13.27;;;16.50;99.90;;;;;;7369589;19;20026;-66
2023/09/29 05:16:53;;;;;;;17.80;12.45;;;16.50;99.90;;;;;;7376285;19;20022;-65
2023/09/29 05:19:19;;;;;;;16.20;12.82;;;16.50;99.90;;;;;;7376588;19;20064;-61
2023/09/29 05:21:45;;;;;;;16.42;12.25;;;16.60;99.90;;;;;;7376937;19;20464;-61
2023/09/29 05:24:12;;;;;;;17.52;12.07;;;16.60;99.90;;;;;;7371711;19;20481;-65
2023/09/29 05:26:38;;;;;;;21.25;11.70;;;16.60;99.90;;;;;;7369589;19;20018;-66
2023/09/29 05:29:04;;;;;;;15.13;11.15;;;16.60;99.90;;;;;;7374021;19;20054;-64
2023/09/29 05:31:30;;;;;;;17.25;11.55;;;16.60;99.90;;;;;;7366946;19;20498;-68
2023/09/29 05:33:56;;;;;;;16.50;11.23;;;16.60;99.90;;;;;;7368199;19;20019;-67
2023/09/29 05:36:27;;;;;;;17.48;12.05;;;16.60;99.90;;;;;;7373734;19;20858;-66
2023/09/29 05:38:53;;;;;;;16.83;12.13;;;16.60;99.90;;;;;;7372289;19;20074;-66
2023/09/29 05:41:39;;;;;;;17.67;11.93;;;16.60;99.90;;;;;;7376675;19;20047;-66
2023/09/29 05:44:08;;;;;;;17.42;10.68;;;16.60;99.90;;;;;;7370813;19;20181;-66
2023/09/29 05:46:35;;;;;;;18.30;12.00;;;16.60;99.90;;;;;;7371722;19;20056;-66
2023/09/29 05:49:01;;;;;;;16.45;10.82;;;16.60;99.90;;;;;;7370928;19;20025;-62
2023/09/29 05:51:27;;;;;;;19.13;11.55;;;16.60;99.90;;;;;;7371883;19;20031;-67
2023/09/29 05:53:53;;;;;;;18.20;11.95;;;16.60;99.90;;;;;;7375013;19;20037;-67
2023/09/29 05:56:40;;;;;;;18.60;12.00;;;16.60;99.90;;;;;;7372497;19;20687;-67
2023/09/29 05:59:13;;;;;;;16.80;11.95;;;16.60;99.90;;;;;;7375114;19;20094;-61
2023/09/29 06:01:39;;;;;;;18.77;10.70;;;16.60;99.90;;;;;;7375761;19;20506;-61
2023/09/29 06:04:06;;;;;;;14.43;10.25;;;16.60;99.90;;;;;;7371717;19;20805;-67
2023/09/29 06:06:33;;;;;;;13.98;10.15;;;16.60;99.90;;;;;;7369267;19;20776;-67
2023/09/29 06:09:04;;;;;;;15.52;10.30;;;16.60;99.90;;;;;;7373661;19;20035;-61
2023/09/29 06:11:30;;;;;;;15.75;9.80;;;16.60;99.90;;;;;;7372009;19;20373;-63
2023/09/29 06:13:57;;;;;;;25.58;19.17;;;16.70;99.90;;;;;;7373534;19;20092;-61
2023/09/29 06:16:24;;;;;;;16.10;10.13;;;16.70;99.90;;;;;;7368517;19;20081;-61
2023/09/29 06:18:50;;;;;;;14.23;10.07;;;16.70;99.90;;;;;;7373958;19;20463;-62
2023/09/29 06:21:17;;;;;;;17.80;9.65;;;16.70;99.90;;;;;;7375088;19;20031;-62
2023/09/29 06:23:43;;;;;;;14.63;9.10;;;16.80;99.90;;;;;;7376943;19;20015;-62
2023/09/29 06:26:10;;;;;;;11.43;7.75;;;16.80;99.90;;;;;;7374124;19;20041;-60
2023/09/29 06:28:38;;;;;;;13.65;9.43;;;16.90;99.90;;;;;;7370983;19;21083;-65
2023/09/29 06:31:06;;;;;;;15.23;9.38;;;16.90;99.90;;;;;;7372940;19;20011;-61
2023/09/29 06:33:32;;;;;;;10.73;9.02;;;16.80;99.90;;;;;;7377520;19;20014;-61
2023/09/29 06:35:58;;;;;;;11.70;7.57;;;16.90;99.90;;;;;;7374971;19;20019;-60
2023/09/29 06:38:25;;;;;;;15.63;8.88;;;16.90;99.90;;;;;;7371772;19;20111;-61
2023/09/29 06:40:51;;;;;;;13.57;8.07;;;16.90;99.90;;;;;;7375142;19;20031;-62
2023/09/29 06:43:17;;;;;;;23.38;19.95;;;16.90;99.90;;;;;;7374529;19;20478;-62
2023/09/29 06:45:44;;;;;;;12.20;7.60;;;16.90;99.90;;;;;;7373461;19;20018;-61
2023/09/29 06:48:11;;;;;;;9.98;6.82;;;16.90;99.90;;;;;;7375245;19;20090;-62
2023/09/29 06:50:37;;;;;;;15.90;8.73;;;16.90;99.90;;;;;;7375603;19;20022;-62
2023/09/29 06:53:04;;;;;;;11.05;6.78;;;16.90;99.90;;;;;;7373263;19;20014;-61
2023/09/29 06:55:31;;;;;;;10.93;7.57;;;16.90;99.90;;;;;;7373680;19;20031;-60
2023/09/29 06:58:17;;;;;;;15.43;6.88;;;16.90;99.90;;;;;;7360413;19;20014;-61
2023/09/29 07:00:44;;;;;;;10.32;6.32;;;17.00;99.90;;;;;;7372018;19;20019;-60
2023/09/29 07:03:12;;;;;;;14.23;6.78;;;17.00;99.90;;;;;;7369135;19;20015;-61
2023/09/29 07:05:38;;;;;;;12.98;7.07;;;17.00;99.90;;;;;;7373784;19;20038;-60
2023/09/29 07:08:07;;;;;;;14.45;6.82;;;17.10;99.90;;;;;;7364735;19;20018;-66
2023/09/29 07:10:34;;;;;;;11.15;6.20;;;17.10;99.90;;;;;;7366479;19;20101;-65
2023/09/29 07:13:00;;;;;;;11.13;6.22;;;17.20;99.90;;;;;;7368023;19;20751;-65
2023/09/29 07:15:26;;;;;;;20.58;15.95;;;17.30;99.90;;;;;;7369020;19;20571;-66
2023/09/29 07:17:53;;;;;;;9.50;5.45;;;17.30;99.90;;;;;;7367598;19;20108;-65
2023/09/29 07:20:19;;;;;;;8.77;6.15;;;17.40;99.90;;;;;;7369799;19;20018;-65
2023/09/29 07:22:45;;;;;;;11.48;6.05;;;17.50;99.90;;;;;;7367327;19;20652;-67
2023/09/29 07:25:14;;;;;;;12.15;6.20;;;17.50;99.90;;;;;;7373693;19;20470;-62
2023/09/29 07:27:40;;;;;;;9.23;5.95;;;17.60;99.90;;;;;;7368217;19;20074;-62
2023/09/29 07:30:08;;;;;;;9.02;6.50;;;17.60;99.90;;;;;;7373738;19;20045;-62
2023/09/29 07:32:34;;;;;;;11.15;6.15;;;17.60;99.90;;;;;;7368931;19;20094;-65
2023/09/29 07:35:02;;;;;;;9.38;5.90;;;17.60;99.90;;;;;;7370515;19;20038;-62
2023/09/29 07:37:29;;;;;;;12.38;6.05;;;17.70;99.90;;;;;;7368884;19;20033;-66
2023/09/29 07:39:57;;;;;;;9.43;6.07;;;17.70;99.90;;;;;;7375227;19;20041;-66
2023/09/29 07:42:24;;;;;;;10.15;5.88;;;17.80;99.90;;;;;;7373289;19;20014;-65
2023/09/29 07:44:50;;;;;;;7.88;5.53;;;17.80;99.90;;;;;;7377780;19;20086;-65
2023/09/29 07:47:17;;;;;;;8.80;5.93;;;17.90;99.90;;;;;;7371835;19;20022;-65
2023/09/29 07:49:43;;;;;;;7.60;5.13;;;18.20;99.90;;;;;;7377456;19;20416;-65
2023/09/29 07:52:10;;;;;;;12.00;5.68;;;18.40;99.90;;;;;;7377281;19;20760;-61
2023/09/29 07:54:36;;;;;;;9.75;5.50;;;18.60;99.90;;;;;;7379637;19;20019;-65
2023/09/29 07:57:03;;;;;;;9.30;4.97;;;18.70;99.90;;;;;;7374269;19;20517;-65
2023/09/29 07:59:30;;;;;;;10.80;6.60;;;18.80;99.90;;;;;;7373273;19;20022;-66
2023/09/29 08:01:58;;;;;;;9.00;5.45;;;18.80;99.90;;;;;;7374023;19;20021;-63
2023/09/29 08:04:25;;;;;;;10.43;5.30;;;18.90;99.90;;;;;;7372304;19;20027;-64
2023/09/29 08:06:52;;;;;;;8.52;4.85;;;18.90;99.90;;;;;;7371232;19;20094;-63
2023/09/29 08:09:19;;;;;;;8.25;4.78;;;19.20;99.90;;;;;;7368174;19;20025;-64
2023/09/29 08:11:45;;;;;;;8.85;5.13;;;19.60;99.90;;;;;;7376294;19;20022;-61
2023/09/29 08:14:12;;;;;;;7.18;4.50;;;20.10;99.90;;;;;;7376515;19;20785;-61
2023/09/29 08:16:39;;;;;;;6.72;4.55;;;20.40;99.90;;;;;;7381520;19;20026;-60
2023/09/29 08:19:05;;;;;;;7.82;4.38;;;20.50;99.90;;;;;;7376004;19;20588;-61
2023/09/29 08:21:34;;;;;;;10.40;4.15;;;20.80;99.90;;;;;;7379472;19;20606;-61
2023/09/29 08:24:06;;;;;;;7.43;4.38;;;20.90;99.90;;;;;;7376478;19;20766;-61
2023/09/29 08:26:34;;;;;;;8.45;4.38;;;20.90;99.90;;;;;;7372520;19;20030;-59
2023/09/29 08:29:00;;;;;;;7.68;3.97;;;20.90;99.90;;;;;;7373855;19;20764;-62
2023/09/29 08:31:27;;;;;;;4.93;3.35;;;21.00;99.90;;;;;;7371691;19;20398;-60
2023/09/29 08:33:53;;;;;;;6.20;3.60;;;21.00;99.90;;;;;;7374309;19;20015;-60
2023/09/29 08:36:20;;;;;;;7.22;3.42;;;20.90;99.90;;;;;;7370720;19;20361;-60
2023/09/29 08:38:46;;;;;;;6.38;3.42;;;21.10;99.90;;;;;;7371925;19;20043;-61
2023/09/29 08:41:14;;;;;;;7.20;3.17;;;21.40;99.90;;;;;;7373365;19;20018;-60
2023/09/29 08:43:42;;;;;;;10.07;4.45;;;21.80;99.90;;;;;;7368847;19;20057;-64
2023/09/29 08:46:09;;;;;;;4.78;3.20;;;21.80;99.90;;;;;;7373163;19;20022;-64
2023/09/29 08:48:36;;;;;;;5.93;3.50;;;21.90;99.90;;;;;;7367871;19;20377;-64
2023/09/29 08:51:03;;;;;;;6.20;3.45;;;22.00;99.90;;;;;;7372474;19;20026;-64
2023/09/29 08:53:31;;;;;;;6.35;3.78;;;22.20;99.90;;;;;;7368099;19;20044;-64
2023/09/29 08:56:01;;;;;;;5.82;3.50;;;22.60;99.90;;;;;;7363038;19;20759;-65
2023/09/29 08:58:30;;;;;;;6.77;2.97;;;22.90;99.90;;;;;;7368230;19;20402;-61
2023/09/29 09:00:56;;;;;;;6.50;3.10;;;23.40;99.90;;;;;;7377492;19;20363;-61
2023/09/29 09:03:22;;;;;;;5.38;2.72;;;23.80;99.90;;;;;;7371656;19;20023;-60
2023/09/29 09:05:49;;;;;;;6.13;3.28;;;23.80;99.90;;;;;;7377315;19;20477;-62
2023/09/29 09:08:16;;;;;;;5.70;3.25;;;23.70;99.90;;;;;;7367222;19;20018;-60
2023/09/29 09:10:58;;;;;;;5.93;2.78;;;23.90;99.90;;;;;;7376404;19;20026;-60
2023/09/29 09:13:28;;;;;;;6.40;2.90;;;24.00;99.90;;;;;;7373605;19;20041;-60
2023/09/29 09:16:02;;;;;;;5.90;3.25;;;23.80;99.90;;;;;;7376944;19;20022;-64
2023/09/29 09:18:28;;;;;;;6.18;3.38;;;23.80;99.90;;;;;;7369197;19;20110;-64
2023/09/29 09:20:55;;;;;;;5.60;2.97;;;24.20;99.90;;;;;;7371789;19;20037;-60
2023/09/29 09:23:21;;;;;;;5.88;2.75;;;24.50;99.90;;;;;;7371212;19;20023;-60
2023/09/29 09:25:48;;;;;;;6.78;3.63;;;24.80;99.90;;;;;;7376230;19;21227;-60
2023/09/29 09:28:18;;;;;;;9.25;2.63;;;24.30;99.90;;;;;;7367738;19;20018;-61
2023/09/29 09:30:59;;;;;;;5.43;3.27;;;24.00;99.90;;;;;;7368886;19;20014;-64
2023/09/29 09:33:27;;;;;;;5.43;2.92;;;23.50;99.90;;;;;;7377334;19;20014;-61
2023/09/29 09:36:04;;;;;;;5.32;3.25;;;23.20;99.90;;;;;;7371173;19;20022;-61
2023/09/29 09:38:32;;;;;;;7.18;3.65;;;23.20;99.90;;;;;;7375886;19;20559;-60
2023/09/29 09:41:00;;;;;;;7.22;3.42;;;22.90;99.90;;;;;;7376322;19;20812;-63
2023/09/29 09:43:29;;;;;;;6.03;3.25;;;22.50;99.90;;;;;;7374125;19;20536;-61
2023/09/29 09:46:03;;;;;;;5.80;2.95;;;22.40;99.90;;;;;;7376701;19;21362;-64
2023/09/29 09:48:41;;;;;;;6.93;3.03;;;22.20;99.90;;;;;;7371495;19;20045;-61
2023/09/29 09:51:09;;;;;;;8.30;4.30;;;22.10;99.90;;;;;;7376294;19;20062;-61
2023/09/29 09:53:37;;;;;;;7.57;2.92;;;22.00;99.90;;;;;;7375668;19;20022;-62
2023/09/29 09:56:24;;;;;;;8.77;3.35;;;21.80;99.90;;;;;;7376419;19;20029;-61
2023/09/29 09:58:50;;;;;;;6.03;3.58;;;21.70;99.90;;;;;;7372639;19;20365;-61
2023/09/29 10:01:17;;;;;;;8.20;3.65;;;21.70;99.90;;;;;;7371884;19;20053;-61
2023/09/29 10:03:43;;;;;;;8.15;3.25;;;21.50;99.90;;;;;;7371828;19;20500;-64
2023/09/29 10:06:10;;;;;;;5.93;3.53;;;21.40;99.90;;;;;;7362031;19;20457;-65
2023/09/29 10:08:37;;;;;;;7.07;3.53;;;21.30;99.90;;;;;;7367820;19;20019;-64
2023/09/29 10:11:12;;;;;;;7.85;3.25;;;21.20;99.90;;;;;;7366574;19;20018;-64
2023/09/29 10:13:44;;;;;;;6.40;3.47;;;21.20;99.90;;;;;;7369245;19;20029;-65
2023/09/29 10:16:23;;;;;;;;;;;21.10;99.90;;;;;;7370433;19;20124;-67
2023/09/29 10:19:01;;;;;;;9.35;4.15;;;21.10;99.90;;;;;;7367292;19;19994;-67
2023/09/29 10:21:33;;;;;;;7.97;4.75;;;21.10;99.90;;;;;;7366966;19;20110;-61
2023/09/29 10:24:00;;;;;;;7.28;3.95;;;21.10;99.90;;;;;;7366290;19;20033;-66
2023/09/29 10:26:28;;;;;;;7.60;3.30;;;21.10;99.90;;;;;;7364124;19;20015;-66
2023/09/29 10:29:01;;;;;;;5.57;3.28;;;21.00;99.90;;;;;;7362233;19;20029;-66
2023/09/29 10:31:28;;;;;;;8.13;3.58;;;21.00;99.90;;;;;;7361730;19;20041;-66
2023/09/29 10:33:55;;;;;;;7.32;3.95;;;20.90;99.90;;;;;;7362968;19;20061;-66
2023/09/29 10:36:30;;;;;;;8.25;3.80;;;20.90;99.90;;;;;;7363791;19;20010;-60
2023/09/29 10:38:58;;;;;;;7.90;4.13;;;20.80;99.90;;;;;;7371445;19;20028;-60
2023/09/29 10:41:28;;;;;;;5.65;3.67;;;20.70;99.90;;;;;;7362548;19;20530;-60
2023/09/29 10:43:59;;;;;;;6.70;3.78;;;20.70;99.90;;;;;;7374108;19;20368;-60
2023/09/29 10:46:52;;;;;;;9.43;3.83;;;20.80;99.90;;;;;;7370222;19;20109;-61
2023/09/29 10:49:18;;;;;;;7.78;4.25;;;21.00;99.90;;;;;;7368492;19;20031;-61
2023/09/29 10:51:45;;;;;;;6.40;4.30;;;21.00;99.90;;;;;;7372093;19;20019;-61
2023/09/29 10:54:12;;;;;;;7.45;3.90;;;21.10;99.90;;;;;;7369756;19;20390;-61
2023/09/29 10:56:39;;;;;;;8.55;3.90;;;21.20;99.90;;;;;;7373777;19;20019;-60
2023/09/29 10:59:07;;;;;;;6.97;3.63;;;21.30;99.90;;;;;;7369889;19;20475;-61
2023/09/29 11:01:34;;;;;;;5.75;3.83;;;21.40;99.90;;;;;;7372332;19;20030;-60
2023/09/29 11:04:02;;;;;;;8.13;3.65;;;21.60;99.90;;;;;;7370387;19;20030;-60
2023/09/29 11:06:29;;;;;;;8.35;3.95;;;21.80;99.90;;;;;;7373004;19;20742;-60
2023/09/29 11:08:58;;;;;;;9.05;3.80;;;21.80;99.90;;;;;;7370909;19;20022;-60
2023/09/29 11:11:36;;;;;;;6.82;4.28;;;21.70;99.90;;;;;;7368481;19;20500;-60
2023/09/29 11:14:05;;;;;;;7.05;4.03;;;21.50;99.90;;;;;;7373095;19;20045;-60
2023/09/29 11:16:32;;;;;;;7.82;4.03;;;21.40;99.90;;;;;;7376406;19;20033;-61
2023/09/29 11:19:12;;;;;;;30.75;26.33;;;21.30;99.90;;;;;;7372905;19;20082;-62
2023/09/29 11:22:25;;;;;;;10.52;8.23;;;21.20;99.90;;;;;;7371356;19;20052;-62
2023/09/29 11:24:51;;;;;;;8.18;4.40;;;21.10;99.90;;;;;;7372894;19;20030;-60
2023/09/29 11:27:21;;;;;;;7.63;4.40;;;21.00;99.90;;;;;;7372590;19;20669;-59
2023/09/29 11:29:48;;;;;;;8.00;4.70;;;21.00;99.90;;;;;;7377410;19;20048;-59
2023/09/29 11:32:18;;;;;;;7.60;5.10;;;21.00;99.90;;;;;;7376171;19;20025;-59
2023/09/29 11:34:44;;;;;;;9.48;4.50;;;21.10;99.90;;;;;;7377825;19;20018;-58
2023/09/29 11:37:12;;;;;;;7.60;4.05;;;21.00;99.90;;;;;;7378446;19;20029;-58
2023/09/29 11:39:39;;;;;;;7.40;4.63;;;21.00;99.90;;;;;;7374986;19;20051;-58
2023/09/29 11:42:06;;;;;;;10.50;5.20;;;21.00;99.90;;;;;;7372376;19;20486;-64
2023/09/29 11:44:55;;;;;;;9.60;5.43;;;20.80;99.90;;;;;;7375732;19;20040;-58
2023/09/29 11:47:46;;;;;;;10.13;5.80;;;20.70;99.90;;;;;;7374439;19;20392;-58
2023/09/29 11:50:13;;;;;;;7.65;6.22;;;20.50;99.90;;;;;;7373021;19;20697;-59
2023/09/29 11:52:41;;;;;;;12.50;6.97;;;20.40;99.90;;;;;;7375797;19;20086;-58
2023/09/29 11:55:11;;;;;;;11.55;6.90;;;20.40;99.90;;;;;;7371163;19;20665;-63
2023/09/29 11:57:42;;;;;;;8.80;5.85;;;20.50;99.90;;;;;;7375440;19;20505;-59
2023/09/29 12:00:13;;;;;;;11.93;6.68;;;20.60;99.90;;;;;;7370845;19;20853;-59
2023/09/29 12:02:40;;;;;;;;;;;20.80;99.90;;;;;;7372785;19;20759;-58
2023/09/29 12:05:08;;;;;;;8.07;5.80;;;20.90;99.90;;;;;;7373319;19;19922;-58
2023/09/29 12:07:35;;;;;;;10.18;6.30;;;21.00;99.90;;;;;;7375119;19;20022;-58
2023/09/29 12:10:02;;;;;;;10.38;6.05;;;21.20;99.90;;;;;;7374861;19;20082;-58
2023/09/29 12:12:31;;;;;;;10.07;6.55;;;21.30;99.90;;;;;;7375858;19;20030;-59
2023/09/29 12:14:57;;;;;;;8.60;5.90;;;21.40;99.90;;;;;;7377459;19;20022;-59
2023/09/29 12:17:23;;;;;;;9.93;5.07;;;21.50;99.90;;;;;;7378128;19;20014;-58
2023/09/29 12:19:50;;;;;;;8.68;4.72;;;21.50;99.90;;;;;;7371615;19;20090;-62
2023/09/29 12:22:17;;;;;;;9.77;5.78;;;21.50;99.90;;;;;;7376043;19;20019;-64
2023/09/29 12:24:43;;;;;;;7.65;4.95;;;21.50;99.90;;;;;;7364622;19;20015;-64
2023/09/29 12:27:09;;;;;;;7.90;5.10;;;21.50;99.90;;;;;;7371385;19;20035;-64
2023/09/29 12:29:39;;;;;;;10.25;5.55;;;21.40;99.90;;;;;;7375523;19;20014;-58
2023/09/29 12:32:06;;;;;;;9.20;5.13;;;21.40;99.90;;;;;;7373432;19;20734;-58
2023/09/29 12:34:34;;;;;;;8.38;5.03;;;21.30;99.90;;;;;;7373702;19;20018;-58
2023/09/29 12:37:01;;;;;;;8.10;4.50;;;21.30;99.90;;;;;;7369446;19;20018;-58
2023/09/29 12:39:28;;;;;;;8.40;5.43;;;21.20;99.90;;;;;;7373277;19;20044;-58
2023/09/29 12:41:58;;;;;;;10.73;5.20;;;21.20;99.90;;;;;;7372811;19;20054;-64
2023/09/29 12:44:24;;;;;;;8.88;4.38;;;21.00;99.90;;;;;;7374834;19;20021;-58